createdAt,value
2023-03-14T00:01:55.325Z,2.00
2023-03-14T00:04:23.050Z,3.85
2023-03-14T00:06:53.015Z,3.28
2023-03-14T00:09:20.414Z,2.33
2023-03-14T00:11:47.926Z,3.03
2023-03-14T00:14:16.604Z,2.45
2023-03-14T00:16:46.590Z,2.17
2023-03-14T00:19:14.371Z,4.13
2023-03-14T00:21:42.186Z,2.85
2023-03-14T00:24:09.920Z,2.17
2023-03-14T00:26:37.440Z,3.42
2023-03-14T00:29:05.488Z,2.25
2023-03-14T00:31:34.159Z,3.53
2023-03-14T00:34:02.573Z,1.45
2023-03-14T00:36:29.853Z,2.00
2023-03-14T00:38:57.316Z,1.30
2023-03-14T00:41:26.470Z,1.40
2023-03-14T00:43:56.501Z,2.00
2023-03-14T00:46:27.384Z,0.90
2023-03-14T00:48:56.250Z,0.98
2023-03-14T00:51:27.419Z,1.10
2023-03-14T00:53:59.085Z,1.23
2023-03-14T00:56:27.215Z,1.08
2023-03-14T00:58:56.924Z,1.30
2023-03-14T01:01:24.439Z,1.15
2023-03-14T01:03:56.172Z,1.20
2023-03-14T01:06:26.088Z,1.33
2023-03-14T01:08:54.068Z,1.45
2023-03-14T01:11:24.117Z,1.35
2023-03-14T01:13:51.801Z,0.98
2023-03-14T01:16:19.497Z,0.90
2023-03-14T01:18:46.964Z,1.50
2023-03-14T01:21:25.655Z,1.60
2023-03-14T01:23:54.050Z,0.75
2023-03-14T01:26:23.739Z,0.40
2023-03-14T01:28:51.945Z,0.30
2023-03-14T01:31:19.637Z,0.30
2023-03-14T01:33:47.151Z,0.50
2023-03-14T01:36:14.180Z,0.30
2023-03-14T01:38:43.593Z,0.20
2023-03-14T01:41:18.560Z,0.20
2023-03-14T01:43:45.759Z,0.20
2023-03-14T01:46:23.371Z,0.13
2023-03-14T01:48:56.518Z,0.10
2023-03-14T01:51:58.928Z,0.10
2023-03-14T01:54:27.371Z,0.20
2023-03-14T01:57:08.649Z,0.20
2023-03-14T01:59:35.640Z,0.10
2023-03-14T02:02:03.230Z,0.10
2023-03-14T02:04:34.130Z,0.15
2023-03-14T02:07:04.159Z,0.20
2023-03-14T02:09:35.554Z,0.32
2023-03-14T02:12:02.771Z,0.28
2023-03-14T02:14:49.130Z,0.30
2023-03-14T02:17:26.109Z,0.30
2023-03-14T02:20:11.594Z,0.40
2023-03-14T02:22:42.723Z,0.52
2023-03-14T02:25:15.414Z,0.20
2023-03-14T02:27:42.655Z,0.43
2023-03-14T02:30:12.174Z,0.30
2023-03-14T02:32:42.373Z,0.30
2023-03-14T02:35:10.996Z,0.28
2023-03-14T02:37:53.012Z,0.40
2023-03-14T02:40:20.457Z,0.35
2023-03-14T02:42:51.113Z,0.30
2023-03-14T02:45:18.753Z,0.28
2023-03-14T02:47:58.336Z,0.20
2023-03-14T02:50:27.439Z,0.17
2023-03-14T02:52:55.102Z,0.40
2023-03-14T02:55:25.680Z,0.10
2023-03-14T02:57:55.545Z,0.20
2023-03-14T03:00:22.506Z,0.20
2023-03-14T03:02:49.614Z,0.10
2023-03-14T03:05:17.925Z,0.30
2023-03-14T03:07:44.780Z,0.10
2023-03-14T03:10:12.051Z,0.22
2023-03-14T03:12:39.654Z,0.20
2023-03-14T03:15:07.136Z,0.43
2023-03-14T03:17:36.734Z,0.20
2023-03-14T03:20:05.834Z,0.10
2023-03-14T03:22:32.774Z,0.25
2023-03-14T03:24:59.542Z,0.20
2023-03-14T03:27:26.410Z,0.20
2023-03-14T03:29:53.818Z,0.10
2023-03-14T03:32:20.902Z,0.10
2023-03-14T03:34:47.724Z,0.30
2023-03-14T03:37:14.667Z,0.60
2023-03-14T03:39:42.638Z,0.30
2023-03-14T03:42:09.571Z,0.10
2023-03-14T03:44:36.552Z,0.22
2023-03-14T03:47:03.660Z,0.10
2023-03-14T03:49:33.822Z,0.10
2023-03-14T03:52:01.343Z,0.10
2023-03-14T03:54:29.982Z,0.10
2023-03-14T03:56:57.880Z,0.10
2023-03-14T03:59:25.013Z,0.20
2023-03-14T04:01:51.887Z,0.10
2023-03-14T04:04:18.971Z,0.20
2023-03-14T04:06:46.518Z,0.20
2023-03-14T04:09:13.795Z,0.10
2023-03-14T04:11:46.735Z,0.20
2023-03-14T04:14:22.412Z,0.77
2023-03-14T04:16:56.797Z,0.20
2023-03-14T04:19:23.643Z,0.32
2023-03-14T04:21:53.973Z,0.20
2023-03-14T04:24:22.500Z,0.10
2023-03-14T04:26:49.964Z,0.10
2023-03-14T04:29:17.006Z,0.30
2023-03-14T04:31:46.308Z,0.10
2023-03-14T04:34:13.249Z,0.25
2023-03-14T04:36:46.577Z,0.20
2023-03-14T04:39:18.286Z,0.98
2023-03-14T04:41:53.358Z,0.30
2023-03-14T04:44:20.638Z,0.30
2023-03-14T04:46:50.541Z,0.20
2023-03-14T04:49:17.410Z,0.30
2023-03-14T04:51:45.294Z,0.10
2023-03-14T04:54:12.450Z,0.40
2023-03-14T04:56:39.541Z,1.38
2023-03-14T04:59:06.381Z,0.32
2023-03-14T05:01:35.709Z,0.35
2023-03-14T05:04:20.262Z,0.40
2023-03-14T05:06:59.476Z,0.28
2023-03-14T05:10:04.919Z,0.38
2023-03-14T05:12:53.518Z,0.40
2023-03-14T05:15:31.138Z,0.43
2023-03-14T05:18:19.216Z,0.60
2023-03-14T05:21:04.890Z,1.00
2023-03-14T05:24:04.199Z,0.28
2023-03-14T05:26:46.249Z,0.70
2023-03-14T05:29:36.266Z,0.30
2023-03-14T05:32:10.105Z,0.20
2023-03-14T05:37:31.028Z,0.30
2023-03-14T05:40:25.151Z,0.30
2023-03-14T05:43:09.859Z,0.30
2023-03-14T05:45:43.308Z,3.15
2023-03-14T05:48:30.442Z,0.40
2023-03-14T05:51:23.184Z,0.30
2023-03-14T05:54:05.762Z,0.30
2023-03-14T05:57:08.079Z,0.50
2023-03-14T06:00:11.234Z,0.43
2023-03-14T06:02:47.469Z,0.47
2023-03-14T06:05:23.148Z,0.20
2023-03-14T06:07:54.803Z,2.40
2023-03-14T06:10:21.991Z,0.82
2023-03-14T06:12:48.838Z,0.98
2023-03-14T06:15:15.763Z,0.22
2023-03-14T06:17:44.156Z,0.30
2023-03-14T06:20:13.341Z,1.05
2023-03-14T06:22:43.504Z,0.40
2023-03-14T06:25:12.763Z,0.20
2023-03-14T06:27:40.276Z,0.50
2023-03-14T06:30:08.022Z,0.45
2023-03-14T06:32:34.957Z,0.40
2023-03-14T06:35:06.992Z,0.70
2023-03-14T06:37:38.443Z,0.30
2023-03-14T06:40:08.228Z,0.30
2023-03-14T06:43:13.540Z,0.80
2023-03-14T06:45:43.188Z,0.40
2023-03-14T06:48:10.096Z,1.13
2023-03-14T06:50:41.163Z,0.40
2023-03-14T06:53:09.061Z,0.40
2023-03-14T06:55:39.250Z,0.40
2023-03-14T06:58:08.993Z,0.50
2023-03-14T07:00:41.341Z,0.40
2023-03-14T07:03:13.275Z,0.40
2023-03-14T07:05:41.650Z,0.55
2023-03-14T07:08:09.482Z,0.30
2023-03-14T07:10:36.504Z,0.30
2023-03-14T07:13:03.595Z,0.40
2023-03-14T07:15:35.041Z,0.30
2023-03-14T07:18:06.654Z,0.50
2023-03-14T07:20:33.580Z,0.55
2023-03-14T07:23:03.990Z,0.52
2023-03-14T07:25:49.283Z,0.50
2023-03-14T07:28:18.834Z,0.32
2023-03-14T07:30:49.716Z,0.68
2023-03-14T07:33:21.634Z,0.60
2023-03-14T07:35:49.521Z,0.32
2023-03-14T07:38:17.018Z,0.50
2023-03-14T07:41:06.215Z,0.43
2023-03-14T07:43:36.745Z,1.65
2023-03-14T07:46:03.738Z,0.40
2023-03-14T07:48:30.671Z,0.22
2023-03-14T07:50:57.713Z,0.40
2023-03-14T07:53:25.063Z,0.20
2023-03-14T07:55:53.380Z,0.30
2023-03-14T07:58:20.706Z,0.40
2023-03-14T08:00:47.607Z,0.77
2023-03-14T08:03:14.520Z,0.20
2023-03-14T08:05:42.653Z,0.50
2023-03-14T08:08:09.766Z,0.43
2023-03-14T08:10:36.781Z,0.10
2023-03-14T08:13:03.796Z,0.20
2023-03-14T08:15:32.858Z,0.40
2023-03-14T08:17:59.796Z,0.20
2023-03-14T08:20:28.156Z,0.65
2023-03-14T08:23:00.382Z,0.17
2023-03-14T08:25:27.650Z,0.20
2023-03-14T08:27:54.883Z,0.25
2023-03-14T08:30:22.617Z,0.13
2023-03-14T08:32:49.726Z,0.20
2023-03-14T08:35:16.867Z,0.20
2023-03-14T08:37:44.033Z,0.20
2023-03-14T08:40:12.886Z,0.10
2023-03-14T08:42:40.549Z,0.20
2023-03-14T08:45:09.010Z,0.30
2023-03-14T08:47:36.535Z,0.55
2023-03-14T08:50:08.665Z,0.20
2023-03-14T08:52:36.394Z,0.30
2023-03-14T08:55:03.407Z,0.30
2023-03-14T08:57:30.846Z,0.30
2023-03-14T08:59:58.512Z,0.20
2023-03-14T09:02:26.074Z,0.32
2023-03-14T09:04:53.215Z,0.10
2023-03-14T09:07:20.602Z,0.10
2023-03-14T09:09:48.424Z,0.20
2023-03-14T09:12:15.931Z,0.20
2023-03-14T09:14:43.753Z,0.10
2023-03-14T09:17:14.945Z,0.10
2023-03-14T09:19:50.955Z,0.10
2023-03-14T09:22:18.775Z,0.30
2023-03-14T09:24:45.957Z,0.10
2023-03-14T09:27:13.939Z,0.10
2023-03-14T09:29:41.597Z,0.15
2023-03-14T09:32:09.742Z,0.10
2023-03-14T09:34:37.655Z,0.30
2023-03-14T09:37:05.664Z,0.38
2023-03-14T09:39:33.727Z,0.30
2023-03-14T09:42:02.022Z,0.25
2023-03-14T09:44:30.530Z,0.20
2023-03-14T09:47:01.982Z,0.22
2023-03-14T09:49:30.743Z,0.40
2023-03-14T09:51:59.168Z,0.40
2023-03-14T09:54:56.548Z,0.20
2023-03-14T09:57:25.447Z,0.45
2023-03-14T09:59:54.649Z,0.40
2023-03-14T10:02:26.609Z,0.30
2023-03-14T10:04:54.536Z,0.70
2023-03-14T10:07:31.150Z,0.55
2023-03-14T10:09:58.536Z,0.35
2023-03-14T10:12:38.455Z,0.40
2023-03-14T10:15:08.069Z,0.50
2023-03-14T10:17:51.322Z,0.40
2023-03-14T10:20:34.678Z,0.70
2023-03-14T10:23:02.566Z,0.40
2023-03-14T10:25:36.679Z,0.60
2023-03-14T10:28:04.976Z,0.40
2023-03-14T10:30:46.268Z,0.40
2023-03-14T10:33:19.374Z,0.55
2023-03-14T10:35:46.664Z,0.40
2023-03-14T10:38:15.437Z,0.40
2023-03-14T10:40:47.320Z,0.60
2023-03-14T10:43:16.283Z,0.50
2023-03-14T10:45:44.310Z,0.32
2023-03-14T10:48:22.649Z,0.45
2023-03-14T10:51:10.639Z,0.30
2023-03-14T10:53:43.260Z,0.30
2023-03-14T10:56:20.706Z,0.20
2023-03-14T10:58:49.776Z,1.85
2023-03-14T11:01:22.529Z,0.30
2023-03-14T11:04:09.356Z,0.40
2023-03-14T11:06:59.268Z,0.20
2023-03-14T11:09:47.862Z,0.30
2023-03-14T11:12:38.939Z,0.20
2023-03-14T11:15:17.283Z,0.30
2023-03-14T11:18:22.120Z,0.90
2023-03-14T11:20:49.009Z,0.30
2023-03-14T11:23:18.996Z,0.47
2023-03-14T11:26:10.629Z,1.95
2023-03-14T11:28:38.670Z,0.68
2023-03-14T11:31:09.777Z,0.40
2023-03-14T11:33:38.742Z,1.35
2023-03-14T11:36:13.349Z,0.77
2023-03-14T11:38:51.608Z,0.75
2023-03-14T11:41:29.084Z,0.57
2023-03-14T11:43:58.497Z,0.40
2023-03-14T11:46:46.763Z,0.50
2023-03-14T11:49:45.261Z,0.60
2023-03-14T11:52:22.673Z,0.40
2023-03-14T11:55:27.307Z,0.45
2023-03-14T11:57:56.728Z,0.70
2023-03-14T12:00:25.080Z,0.50
2023-03-14T12:03:01.494Z,0.95
2023-03-14T12:05:57.084Z,0.57
2023-03-14T12:08:33.953Z,0.70
2023-03-14T12:11:27.301Z,0.70
2023-03-14T12:13:55.056Z,0.80
2023-03-14T12:16:28.620Z,0.80
2023-03-14T12:18:59.468Z,0.93
2023-03-14T12:21:45.675Z,0.80
2023-03-14T12:24:26.377Z,0.60
2023-03-14T12:27:01.142Z,1.38
2023-03-14T12:29:29.180Z,0.80
2023-03-14T12:32:03.379Z,0.50
2023-03-14T12:34:44.196Z,0.82
2023-03-14T12:37:20.688Z,0.80
2023-03-14T12:40:07.314Z,1.67
2023-03-14T12:42:45.065Z,0.90
2023-03-14T12:45:26.774Z,1.10
2023-03-14T12:48:23.960Z,0.68
2023-03-14T12:51:02.683Z,0.70
2023-03-14T12:54:20.463Z,1.35
2023-03-14T12:57:21.910Z,0.75
2023-03-14T13:00:30.716Z,0.50
2023-03-14T13:03:03.482Z,0.30
2023-03-14T13:05:30.882Z,0.33
2023-03-14T13:08:04.255Z,0.80
2023-03-14T13:10:38.135Z,0.43
2023-03-14T13:13:38.076Z,0.60
2023-03-14T13:16:09.179Z,0.47
2023-03-14T13:18:44.483Z,0.80
2023-03-14T13:21:22.386Z,0.60
2023-03-14T13:24:07.149Z,0.65
2023-03-14T13:26:40.489Z,0.40
2023-03-14T13:31:45.800Z,0.47
2023-03-14T13:34:13.174Z,0.40
2023-03-14T13:36:40.150Z,0.40
2023-03-14T13:39:15.109Z,0.30
2023-03-14T13:41:42.772Z,0.32
2023-03-14T13:44:24.397Z,0.30
2023-03-14T13:46:51.798Z,0.40
2023-03-14T13:49:23.921Z,0.55
2023-03-14T13:51:51.413Z,0.50
2023-03-14T13:54:22.707Z,0.50
2023-03-14T13:56:50.466Z,0.50
2023-03-14T13:59:30.174Z,0.50
2023-03-14T14:01:58.939Z,0.30
2023-03-14T14:04:27.950Z,0.30
2023-03-14T14:07:00.250Z,0.40
2023-03-14T14:09:32.053Z,0.40
2023-03-14T14:12:16.965Z,0.57
2023-03-14T14:15:01.170Z,0.30
2023-03-14T14:20:06.753Z,0.30
2023-03-14T14:22:34.608Z,0.45
2023-03-14T14:25:04.442Z,0.40
2023-03-14T14:27:40.496Z,0.30
2023-03-14T14:30:32.252Z,0.40
2023-03-14T14:33:18.887Z,0.40
2023-03-14T14:35:52.206Z,0.40
2023-03-14T14:38:21.294Z,1.00
2023-03-14T14:40:50.528Z,0.40
2023-03-14T14:43:25.569Z,0.40
2023-03-14T14:45:53.584Z,0.35
2023-03-14T14:48:43.954Z,1.15
2023-03-14T14:51:10.888Z,0.32
2023-03-14T14:53:43.595Z,0.30
2023-03-14T14:56:23.931Z,0.93
2023-03-14T14:58:53.141Z,0.65
2023-03-14T15:01:22.678Z,1.27
2023-03-14T15:03:53.961Z,0.30
2023-03-14T15:06:21.161Z,0.70
2023-03-14T15:08:48.707Z,0.30
2023-03-14T15:11:20.697Z,0.75
2023-03-14T15:13:47.692Z,0.90
2023-03-14T15:16:17.067Z,0.20
2023-03-14T15:18:44.272Z,0.35
2023-03-14T15:21:20.432Z,0.30
2023-03-14T15:23:47.424Z,0.40
2023-03-14T15:26:20.685Z,0.40
2023-03-14T15:31:18.509Z,0.38
2023-03-14T15:33:45.850Z,0.60
2023-03-14T15:36:34.595Z,0.63
2023-03-14T15:39:02.970Z,0.57
2023-03-14T15:41:30.083Z,0.40
2023-03-14T15:43:58.492Z,0.70
2023-03-14T15:46:27.808Z,0.40
2023-03-14T15:48:57.293Z,0.40
2023-03-14T15:51:25.355Z,0.40
2023-03-14T15:53:52.924Z,0.50
2023-03-14T15:56:21.890Z,0.40
2023-03-14T15:58:50.195Z,0.47
2023-03-14T16:01:17.865Z,0.40
2023-03-14T16:03:49.639Z,0.50
2023-03-14T16:06:17.588Z,0.30
2023-03-14T16:08:49.546Z,0.40
2023-03-14T16:11:22.909Z,0.22
2023-03-14T16:13:53.753Z,0.88
2023-03-14T16:16:22.433Z,0.32
2023-03-14T16:18:51.522Z,0.30
2023-03-14T16:21:22.113Z,0.45
2023-03-14T16:23:50.598Z,0.82
2023-03-14T16:26:19.465Z,0.52
2023-03-14T16:28:47.279Z,0.30
2023-03-14T16:31:19.781Z,0.65
2023-03-14T16:33:47.598Z,0.30
2023-03-14T16:36:17.768Z,0.30
2023-03-14T16:38:45.600Z,0.63
2023-03-14T16:41:20.783Z,0.50
2023-03-14T16:43:52.694Z,0.40
2023-03-14T16:46:22.750Z,0.47
2023-03-14T16:48:50.625Z,0.30
2023-03-14T16:51:17.627Z,0.40
2023-03-14T16:53:45.607Z,0.40
2023-03-14T16:56:13.017Z,1.23
2023-03-14T16:58:40.087Z,0.30
2023-03-14T17:01:11.881Z,1.75
2023-03-14T17:03:40.001Z,2.53
2023-03-14T17:06:07.717Z,3.10
2023-03-14T17:08:36.271Z,1.67
2023-03-14T17:11:03.223Z,1.50
2023-03-14T17:13:30.235Z,1.13
2023-03-14T17:15:58.744Z,0.50
2023-03-14T17:18:26.181Z,0.50
2023-03-14T17:20:53.383Z,0.50
2023-03-14T17:23:20.757Z,0.40
2023-03-14T17:25:48.446Z,1.17
2023-03-14T17:28:16.237Z,0.40
2023-03-14T17:30:43.314Z,0.50
2023-03-14T17:33:10.859Z,0.45
2023-03-14T17:35:38.729Z,1.73
2023-03-14T17:38:06.644Z,0.30
2023-03-14T17:40:34.281Z,0.40
2023-03-14T17:43:01.440Z,0.52
2023-03-14T17:45:28.614Z,0.95
2023-03-14T17:47:55.681Z,0.40
2023-03-14T17:50:22.767Z,0.55
2023-03-14T17:52:49.884Z,0.40
2023-03-14T17:55:17.526Z,0.50
2023-03-14T17:57:45.006Z,0.50
2023-03-14T18:00:13.327Z,0.30
2023-03-14T18:02:41.808Z,0.40
2023-03-14T18:05:09.678Z,0.50
2023-03-14T18:07:37.333Z,0.50
2023-03-14T18:10:09.910Z,0.60
2023-03-14T18:12:37.255Z,0.50
2023-03-14T18:15:05.758Z,0.60
2023-03-14T18:17:32.867Z,0.47
2023-03-14T18:19:59.827Z,0.40
2023-03-14T18:22:26.826Z,0.40
2023-03-14T18:24:53.903Z,0.80
2023-03-14T18:27:20.813Z,0.55
2023-03-14T18:29:47.918Z,0.50
2023-03-14T18:32:14.919Z,0.40
2023-03-14T18:34:43.019Z,0.32
2023-03-14T18:37:10.092Z,0.30
2023-03-14T18:39:37.149Z,0.60
2023-03-14T18:42:04.263Z,0.30
2023-03-14T18:44:31.236Z,0.20
2023-03-14T18:46:58.339Z,0.20
2023-03-14T18:49:26.248Z,0.30
2023-03-14T18:51:53.457Z,0.50
2023-03-14T18:54:21.181Z,0.40
2023-03-14T18:56:48.236Z,0.65
2023-03-14T18:59:15.458Z,0.30
2023-03-14T19:01:43.402Z,0.40
2023-03-14T19:04:11.527Z,0.40
2023-03-14T19:06:38.821Z,0.45
2023-03-14T19:09:06.134Z,0.40
2023-03-14T19:11:33.149Z,0.55
2023-03-14T19:14:00.542Z,0.43
2023-03-14T19:16:28.015Z,1.05
2023-03-14T19:18:55.832Z,0.77
2023-03-14T19:21:41.232Z,0.40
2023-03-14T19:24:08.271Z,0.40
2023-03-14T19:26:37.086Z,0.50
2023-03-14T19:29:04.172Z,0.30
2023-03-14T19:31:31.737Z,0.30
2023-03-14T19:33:59.616Z,0.30
2023-03-14T19:36:28.741Z,0.50
2023-03-14T19:38:56.731Z,0.52
2023-03-14T19:41:25.327Z,0.40
2023-03-14T19:43:52.884Z,0.50
2023-03-14T19:46:19.952Z,0.30
2023-03-14T19:48:48.736Z,0.47
2023-03-14T19:51:16.118Z,0.50
2023-03-14T19:53:43.867Z,0.93
2023-03-14T19:56:11.248Z,0.50
2023-03-14T19:58:39.253Z,0.60
2023-03-14T20:01:07.884Z,0.60
2023-03-14T20:03:38.445Z,0.52
2023-03-14T20:06:09.568Z,0.80
2023-03-14T20:08:36.560Z,0.47
2023-03-14T20:11:07.498Z,0.80
2023-03-14T20:13:34.805Z,0.45
2023-03-14T20:16:04.488Z,0.43
2023-03-14T20:18:31.587Z,0.60
2023-03-14T20:20:59.180Z,0.93
2023-03-14T20:23:26.585Z,0.90
2023-03-14T20:25:57.694Z,0.90
2023-03-14T20:28:25.209Z,0.63
2023-03-14T20:30:52.584Z,1.20
2023-03-14T20:33:19.997Z,0.80
2023-03-14T20:35:54.418Z,0.60
2023-03-14T20:38:21.573Z,1.48
2023-03-14T20:40:48.817Z,0.88
2023-03-14T20:43:15.895Z,0.90
2023-03-14T20:45:42.815Z,1.20
2023-03-14T20:48:09.888Z,0.68
2023-03-14T20:50:37.026Z,0.40
2023-03-14T20:53:04.043Z,0.60
2023-03-14T20:55:31.527Z,0.60
2023-03-14T20:57:59.332Z,0.40
2023-03-14T21:00:26.430Z,0.70
2023-03-14T21:02:54.253Z,0.60
2023-03-14T21:05:21.695Z,0.40
2023-03-14T21:07:48.659Z,0.30
2023-03-14T21:10:16.023Z,0.40
2023-03-14T21:12:43.125Z,0.60
2023-03-14T21:15:14.325Z,0.55
2023-03-14T21:17:42.074Z,0.40
2023-03-14T21:20:12.930Z,0.50
2023-03-14T21:22:40.071Z,0.85
2023-03-14T21:25:07.438Z,0.47
2023-03-14T21:27:34.448Z,0.50
2023-03-14T21:30:01.294Z,0.40
2023-03-14T21:32:28.207Z,0.30
2023-03-14T21:34:55.280Z,0.45
2023-03-14T21:37:22.445Z,0.70
2023-03-14T21:39:49.622Z,0.30
2023-03-14T21:42:16.858Z,0.35
2023-03-14T21:44:48.730Z,0.57
2023-03-14T21:47:16.987Z,0.32
2023-03-14T21:49:44.947Z,0.40
2023-03-14T21:52:13.329Z,0.40
2023-03-14T21:54:42.945Z,0.40
2023-03-14T21:57:10.600Z,0.73
2023-03-14T21:59:38.144Z,0.80
2023-03-14T22:02:06.616Z,0.30
2023-03-14T22:04:36.733Z,0.65
2023-03-14T22:07:24.101Z,0.60
2023-03-14T22:09:51.063Z,0.60
2023-03-14T22:12:19.589Z,0.40
2023-03-14T22:14:47.005Z,0.30
2023-03-14T22:17:14.172Z,0.40
2023-03-14T22:19:41.198Z,0.30
2023-03-14T22:22:08.398Z,0.30
2023-03-14T22:24:35.424Z,0.50
2023-03-14T22:27:02.379Z,0.30
2023-03-14T22:29:29.419Z,0.30
2023-03-14T22:31:56.598Z,0.28
2023-03-14T22:34:23.645Z,0.40
2023-03-14T22:36:50.629Z,0.40
2023-03-14T22:39:17.513Z,0.68
2023-03-14T22:41:44.491Z,0.30
2023-03-14T22:44:11.711Z,0.57
2023-03-14T22:46:38.856Z,0.40
2023-03-14T22:49:05.901Z,0.40
2023-03-14T22:51:33.022Z,0.40
2023-03-14T22:54:00.302Z,0.50
2023-03-14T22:56:27.360Z,0.40
2023-03-14T22:58:57.557Z,0.52
2023-03-14T23:01:24.891Z,0.63
2023-03-14T23:03:51.780Z,0.38
2023-03-14T23:06:18.847Z,0.30
2023-03-14T23:08:45.668Z,0.47
2023-03-14T23:11:15.366Z,0.38
2023-03-14T23:13:42.880Z,0.98
2023-03-14T23:16:12.075Z,1.02
2023-03-14T23:18:39.828Z,0.90
2023-03-14T23:21:11.529Z,0.30
2023-03-14T23:23:38.523Z,0.68
2023-03-14T23:26:06.221Z,0.47
2023-03-14T23:28:33.079Z,0.50
2023-03-14T23:31:00.227Z,0.63
2023-03-14T23:33:27.887Z,0.50
2023-03-14T23:35:54.809Z,0.60
2023-03-14T23:38:24.593Z,0.50
2023-03-14T23:40:51.970Z,0.35
2023-03-14T23:43:19.221Z,0.40
2023-03-14T23:45:53.385Z,0.65
2023-03-14T23:48:21.260Z,0.30
2023-03-14T23:50:48.066Z,0.40
2023-03-14T23:53:14.858Z,0.60
2023-03-14T23:55:41.667Z,0.80
2023-03-14T23:58:08.525Z,0.60
